[CEV] Pas de quartier pour Fabio !



Fabio Quartararo a obtenu la pole-position provisoire sur le circuit de Motorland Aragon pour le 3ème meeting du championnat espagnol de Moto3. Le Français, leader du championnat avec 2 succès en 3 courses devance Jorge Navarro de près d’une demi-seconde et Nicolo Bulega d’une seconde pleine.

Gabrile Rodrigo, 2ème du championnat (à 24 points de Fabio) a réalisé le 4ème temps. Alors qu’elle avait écrit une page de l’histoire du championnat espagnol en s’imposant l’an dernier sur ce tracé, Maria Herrera, la coéquipière de Fabio Quartararo n’a obtenu que le 10ème chrono.

On signalera également la 19ème place sur la grille provisoire de Loris Cresson, la 31ème de Simon Danilo et enfin la 34ème meilleure performance réalisée par Martin Vanhaeren.

Tous les concurrents reprendront la piste à 13h00 pour la 2ème séance qualificative.

 

En Moto2, Jesko Raffin a placé la barre très haut en signant le meilleur temps avec une avance indécente sur ses adversaires. Le Suisse a repoussé le plus proche de ses rivaux, Florian Alt, à près de 1’’5. Sur le podium lors de la manche d’ouverture (les Moto2 n’avaient pas fait le déplacement au Mans), Alan Techer a obtenu une place sur la première ligne provisoire au guidon de sa Mistral.

Vainqueur à Jerez, Edgar Pons est resté légèrement en retrait à l’issue de la première séance de qualification avec le 8ème temps.

A noter que le prototype espagnol La Moto2 n’a pas pu rouler dans cette séance.

Enfin, en Superbike, c’est l’américain Kenny Noyes qui a obtenu le meilleur temps devant Robertino Pietri et Carmelo Moralles.

Stay tuned !

Rejoignez-nous sur Facebook

Rejoignez-nous sur Twitter

Moto3:
1 20 HONDA M3 16 16 FRA

2 9 Jorge NAVARRO ESP TEAM MACHADO-FAU 55 IODA-HONDA M3 1:59.016 13 16 +0.465 +0.465 153.6
3 46 Nicolo BULEGA ITA CALVO TEAM KTM M3 1:59.601 15 16 +1.050 +0.585 152.8
4 19 Gabriel RODRIGO ESP RBA RACING TEAM KTM M3 1:59.992 12 14 +1.441 +0.391 152.3
5 24 Marcos RAMÍREZ ESP CALVO TEAM KTM M3 2:00.043 16 17 +1.492 +0.051 152.3
6 17 Edgar GALLIPOLI VEN VENEZUELA RACING TEAM KALEX KTM M3 2:00.134 8 9 +1.583 +0.091 152.1
7 50 Hiroki ONO JPN HONDA TEAM ASIA TSR/HONDA M3 2:00.148 14 15 +1.597 +0.014 152.1
8 62 Adrian MARTÍN ESP RBA RACING TEAM KTM M3 2:00.177 12 13 +1.626 +0.029 152.1
9 2 Remy GARDNER AUS CALVO TEAM KTM M3 2:00.353 10 16 +1.802 +0.176 151.9
10 6 Maria HERRERA 2:00.357 +1.806 +0.004 151.9 JUNIOR TEAM ESTRELLA GALICIA 0.0 HONDA M3 15 16 ESP
11 16 Andrea MIGNO ITA TEAM ASPAR-VR46 KALEX M3 2:00.402 11 16 +1.851 +0.045 151.8
12 99 Bo BENDSNEYDER NLD DUTCH RACING TEAM FTR M3 2:00.658 12 14 +2.107 +0.256 151.5
13 44 Aron CANET ESP PROMORACING HONDA M3 2:00.852 13 14 +2.301 +0.194 151.2
14 28 Bradley RAY GBR KRP/FABRACING FTR/KTM M3 2:00.864 10 15 +2.313 +0.012 151.2
15 42 Stefano MANZI ITA TMR-MAHINDRA MAHINDRA M3 2:00.953 10 15 +2.402 +0.089 151.1
16 27 Takuma KUNIMINE JPN PMU 7C TSR/HONDA M3 2:00.962 13 14 +2.411 +0.009 151.1
17 69 Ryan WAYNE GBR CALVO TEAM KTM M3 2:01.004 11 15 +2.453 +0.042 151.0
18 97 Luca MARINI ITA TEAM ASPAR-VR46 KALEX M3 2:01.259 4 10 +2.708 +0.255 150.7
19 84 Loris CRESSON BEL KRP FTR-HONDA M3 2:01.493 6 10 +2.942 +0.234 150.4
20 7 Adam NORRODIN MYS SIC-AJO KTM M3 2:01.579 5 16 +3.028 +0.086 150.3
21 18 Xavi CARDELUS AND CARDELUS-BST KTM M3 2:01.596 5 16 +3.045 +0.017 150.3
22 36 Max ENDERLEIN 2:01.640 +3.089 +0.044 150.3 FREUDENBERG ADAC SACHSEN LZ KTM M3 13 14 DEU
23 45 Olly SIMPSON AUS OLLY SIMPSON RACING KTM M3 2:01.642 16 17 +3.091 +0.002 150.3
24 38 Tatsuki SUZUKI JPN PMS CIP HONDA M3 2:01.685 9 15 +3.134 +0.043 150.2
25 10 David SANCHIS ESP CUNA DE CAMPEONES MIR RACING KTM M3 2:01.692 14 15 +3.141 +0.007 150.2
26 93 Ramdan ROSLI MYS PETRONAS AHM MALAYSIA KTM M3 2:01.820 9 10 +3.269 +0.128 150.0
27 88 Hafiza ROFA MYS SIC-AJO KTM M3 2:01.913 7 10 +3.362 +0.093 149.9
28 26 Daniel SAEZ 2:02.033 +3.482 +0.120 149.8 SALUD EN CASA SPORT SAEZ TEAM SUTER-HONDA M3 14 17 ESP
29 40 Lawson WALTERS AUS TOP RIDER AUSTRALIA KTM M3 2:02.041 15 16 +3.490 +0.008 149.8
30 79 Maximilian KAPPLER DEU SAXOPRINT RTG FTR-HONDA M3 2:02.425 10 16 +3.874 +0.384 149.3
31 41 Simon DANILO FRA CYGNET RACING KALEX KTM M3 2:02.457 4 14 +3.906 +0.032 149.3
32 49 Borja QUERO ESP LARRESPORT HONDA HONDA M3 2:02.588 11 15 +4.037 +0.131 149.1
33 47 Aaron POLANCO ESP TEAM ASPAR-PROTO-TECH KALEX M3 2:03.106 16 17 +4.555 +0.518 148.5
34 91 Martin VANHAEREN BEL H43TEAM BLUMAG-TALASUR HONDA M3 2:03.244 15 17 +4.693 +0.138 148.3
35 51 Kenta FUJII JPN F.C.C. TSR HONDA TSR/HONDA M3 2:03.343 9 16 +4.792 +0.099 148.2
36 96 Jonas GEITNER DEU FREUDENBERG RACING TEAM KTM M3 2:03.685 4 6 +5.134 +0.342 147.8
37 71 Thomas E. VAN LEEUWEN NLD 71WORKX.COM RACING HONDA M3 2:04.065 14 17 +5.514 +0.380 147.3
38 29 Juanjo NUÑEZ ESP TEAM MACHADO-FAU55RACING FTR HONDA M3 2:04.320 14 15 +5.769 +0.255 147.0
39 56 Thomas GRADINGER JPN COFAIN RACING TEAM KTM M3 2:04.344 4 5 +5.793 +0.024 147.0
40 23 Marlon VELANDIA VEN VENEZUELA RACING TEAM KALEX KTM M3 2:04.549 3 10 +5.998 +0.205 146.7
41 72 Christoph BEINLICH DEU EULENSTEIN-BEINLICH-RTG FTR HONDA M3 2:04.750 13 16 +6.199 +0.201 146.5
42 8 Jorel BOERBOOM NLD RV RACING SUTER HONDA M3 2:04.790 3 7 +6.239 +0.040 146.5
43 82 Juan Antonio BELLVER ESP TEAM BRAINER FTR-HONDA M3 2:05.104 13 15 +6.553 +0.314 146.1
44 64 Gabriele RUJU ITA PROMORACING HONDA M3 2:06.266 11 12 +7.715 +1.162 144.8
45 66 Agustí LEVY ESP LKV COMPETICION HONDA M3 2:06.354 6 16 +7.803 +0.088 144.7
 
Moto2/600:
1 10 Jesko RAFFIN CHE PONSRACING KALEX M2 1:54.882 8 13 - - 159.1
2 66 Florian ALT DEU STYLOBIKE TEAM BOHLE GRUPPE KALEX M2 1:56.379 10 17 +1.497 +1.497 157.0
3 89 Alan TECHER FRA TARGOBANK MOTORSPORT TECH 3 M2 1:56.482 7 18 +1.600 +0.103 156.9
4 44 Steven ODENDAAL ZAF AGR TEAM SPEEDUP M2 1:56.628 11 16 +1.746 +0.146 156.7
5 95 Miroslav POPOV CZE MONTAZE BROZ RACING TEAM SUTER M2 1:56.760 12 12 +1.878 +0.132 156.5
6 97 Xavi VIERGE ESP TARGOBANK MOTORSPORT TECH 3 M2 1:56.855 14 16 +1.973 +0.095 156.4
7 19 Sebas PORTO ARG TEAM ARGENTINA-STYLOBIKE KALEX M2 1:56.945 11 17 +2.063 +0.090 156.3
8 57 Edgar PONS ESP PONSRACING KALEX M2 1:57.066 17 17 +2.184 +0.121 156.1
9 17 Russel GOMEZ ESP TEAM STRATOS ARIANE M2 1:57.604 13 16 +2.722 +0.538 155.4
10 70 Luca VITALI ITA TEAM STRATOS ARIANE M2 1:57.614 12 15 +2.732 +0.010 155.4
11 80 Dakota Edward MAMOLA BEL ASPAR GRT RACING TEAM SUTER M2 1:57.642 16 16 +2.760 +0.028 155.4
12 24 Miguel Angel POYATOS ESP M2 1:57.866 13 16 +2.984 +0.224 155.1
13 84 Diego PIERLUIGI ARG TEAM ARGENTINA-STYLOBIKE FTR M2 1:58.139 11 17 +3.257 +0.273 154.7
14 3 Diego PEREZ ESP GRIFUL TEAM MVR M2 1:58.419 15 15 +3.537 +0.280 154.3
15 32 Mirko GIANSANTI ITA GRT RACING TEAM SUTER M2 1:58.564 15 16 +3.682 +0.145 154.2
16 77 Miquel PONS ESP DVRACING - GRUP R.PONS INMOTEC M2 1:58.578 9 16 +3.696 +0.014 154.1
17 74 Andres GONZALEZ ARG MR GRIFUL MVR M2 1:58.670 11 15 +3.788 +0.092 154.0
18 22 Federico FULIGNI ITA TEAM CIATTI SUTER M2 1:58.684 15 15 +3.802 +0.014 154.0
19 71 Ferran CASAS ESP TEAM TORRENTÓ YAMAHA STK 1:58.710 16 16 +3.828 +0.026 154.0
20 61 F. Javier HIDALGO ESP BRUNO PERFORMANCE TSR/HONDA M2 1:58.998 13 17 +4.116 +0.288 153.6
21 45 Jan BÜHN DEU H43TEAM BLUMAG AJR M2 1:59.264 12 16 +4.382 +0.266 153.2
22 55 Alejandro MEDINA ESP TEAM STRATOS ARIANE M2 1:59.296 15 15 +4.414 +0.032 153.2
23 8 Bertin THIBAUT FRA BERTIN THIBAUT STK 1:59.363 10 15 +4.481 +0.067 153.1
24 51 Christoffer BERGMAN SWE ALSTARE JUNIOR TEAM BIMOTA M2 1:59.670 7 17 +4.788 +0.307 152.7
25 4 Thibaut GOURIN FRA MMX RACING YAMAHA STK 1:59.888 14 16 +5.006 +0.218 152.5
26 41 Jorge ARROYO ESP PASTRANA RACING TEAM YAMAHA M2 2:00.164 15 16 +5.282 +0.276 152.1
27 15 Santiago MANGAS ESP PL RACING MOTO 2 SUTER PL RACING M2 2:00.441 14 17 +5.559 +0.277 151.8
28 18 Bastien CHESAUX CHE CARDELUS-BST SUTER HONDA M2 2:00.926 3 4 +6.044 +0.485 151.1
29 42 Toni FINSTERBUSCH DEU SAXOPRINT RTG AJR M2 2:01.097 17 17 +6.215 +0.171 150.9
30 59 Pedro RODRIGUEZ ESP MR GRIFUL MVR M2 2:01.236 14 14 +6.354 +0.139 150.8
31 12 Jesus ALCONCHEL ESP MACISA KAWASAKI STK 2:01.548 13 17 +6.666 +0.312 150.4
32 85 Abian SANTANA ESP PASTRANA RACING TEAM YAMAHA M2 2:02.345 12 17 +7.463 +0.797 149.4
33 16 Julio David PALAO 2:02.372 +7.490 +0.027 149.4 PLUS15PROTECT - PL RACING - JDRACER KAWASAKI STK 9 15 ESP
34 21 Daniel ARROYO 2:02.530 +7.648 +0.158 149.2 GPD ENGINEERING SPAIN LOZANO MOTORACING GPD M2 10 14 ESP
35 38 John SIMPSON 2:02.550 +7.668 +0.020 149.1 QUELCH AFTERDARK MOTOSPORT KAWASAKI STK 14 14 GBR
36 13 Melissa PARIS USA TEAM STRATOS KAWASAKI STK 2:02.922 8 18 +8.040 +0.372 148.7
37 52 Corey TURNER AUS ROCK OIL RACING FTR M2 2:03.122 7 15 +8.240 +0.200 148.4
38 27 Freddie SHEENE GBR QUELCH AFTER DARK KAWASAKI STK 2:03.381 8 15 +8.499 +0.259 148.1
39 75 Anton EREMIN RUS MOTORRIKA M2 2:03.651 9 18 +8.769 +0.270 147.8
40 63 James WHITE GBR QUELCH AFTER DARK KAWASAKI STK 2:04.009 11 15 +9.127 +0.358 147.4
41 54 Marcus WOODBINE GBR MR GRIFUL MVR M2 2:05.074 4 14 +10.192 +1.065 146.1

 

 

Partager cet articleShare on Facebook
Facebook
0Tweet about this on Twitter
Twitter
Share on LinkedIn
Linkedin
Email this to someone
email

Dans cet article

Poster un Commentaire

  S’abonner  
Notifier de